Time,TemperatureF,DewpointF,PressureIn,WindDirection,WindDirectionDegrees,WindSpeedMPH,WindSpeedGustMPH,Humidity,HourlyPrecipIn,Conditions,Clouds,dailyrainin,SoftwareType,DateUTC
2013-09-07 00:00:00,68.0,66.2,29.98,North,8,0.0,0.0,94,0.00,,,0.00,Wunderground v.1.15,2013-09-07 05:00:00,
2013-09-07 00:10:00,67.8,66.0,29.98,North,8,0.0,0.0,94,0.00,,,0.00,Wunderground v.1.15,2013-09-07 05:10:00,
2013-09-07 00:20:00,67.6,65.8,29.97,North,8,0.0,0.0,94,0.00,,,0.00,Wunderground v.1.15,2013-09-07 05:20:00,
2013-09-07 00:25:00,67.6,65.8,29.97,North,8,0.0,0.0,94,0.00,,,0.00,Wunderground v.1.15,2013-09-07 05:25:00,
2013-09-07 00:30:00,67.5,65.7,29.97,North,8,0.0,0.0,94,0.00,,,0.00,Wunderground v.1.15,2013-09-07 05:30:00,
2013-09-07 00:40:00,67.4,65.6,29.97,North,8,0.0,0.0,94,0.00,,,0.00,Wunderground v.1.15,2013-09-07 05:40:00,
2013-09-07 00:50:00,67.2,65.4,29.98,North,8,0.0,0.0,94,0.00,,,0.00,Wunderground v.1.15,2013-09-07 05:50:00,
2013-09-07 01:00:00,67.1,65.3,29.97,North,8,0.0,0.0,94,0.00,,,0.00,Wunderground v.1.15,2013-09-07 06:00:00,
2013-09-07 01:10:00,67.0,65.2,29.97,North,8,0.0,0.0,94,0.00,,,0.00,Wunderground v.1.15,2013-09-07 06:10:00,
2013-09-07 01:20:00,66.9,65.4,29.97,North,8,0.0,0.0,95,0.00,,,0.00,Wunderground v.1.15,2013-09-07 06:20:00,
2013-09-07 01:25:00,66.8,65.3,29.97,North,8,0.0,0.0,95,0.00,,,0.00,Wunderground v.1.15,2013-09-07 06:25:00,
2013-09-07 01:30:00,66.7,65.2,29.97,North,8,0.0,0.0,95,0.00,,,0.00,Wunderground v.1.15,2013-09-07 06:30:00,
2013-09-07 01:40:00,66.6,65.1,29.96,North,8,0.0,0.0,95,0.00,,,0.00,Wunderground v.1.15,2013-09-07 06:40:00,
2013-09-07 01:50:00,66.5,65.0,29.96,North,8,0.0,0.0,95,0.00,,,0.00,Wunderground v.1.15,2013-09-07 06:50:00,
2013-09-07 01:55:00,66.4,64.9,29.96,North,8,0.0,0.0,95,0.00,,,0.00,Wunderground v.1.15,2013-09-07 06:55:00,
2013-09-07 02:00:00,66.3,64.8,29.96,North,8,0.0,0.0,95,0.00,,,0.00,Wunderground v.1.15,2013-09-07 07:00:00,
2013-09-07 02:10:00,66.1,64.6,29.96,North,8,0.0,0.0,95,0.00,,,0.00,Wunderground v.1.15,2013-09-07 07:10:00,
2013-09-07 02:20:00,66.1,64.6,29.96,North,8,0.0,0.0,95,0.00,,,0.00,Wunderground v.1.15,2013-09-07 07:20:00,
2013-09-07 02:25:00,66.0,64.5,29.96,North,8,0.0,0.0,95,0.00,,,0.00,Wunderground v.1.15,2013-09-07 07:25:00,
2013-09-07 02:35:00,65.8,64.3,29.95,North,8,0.0,0.0,95,0.00,,,0.00,Wunderground v.1.15,2013-09-07 07:35:00,
2013-09-07 02:40:00,65.7,64.2,29.96,North,8,0.0,0.0,95,0.00,,,0.00,Wunderground v.1.15,2013-09-07 07:40:00,
2013-09-07 02:50:00,65.6,64.1,29.96,North,8,0.0,0.0,95,0.00,,,0.00,Wunderground v.1.15,2013-09-07 07:50:00,
2013-09-07 02:55:00,65.7,64.5,29.96,North,8,0.0,0.0,96,0.00,,,0.00,Wunderground v.1.15,2013-09-07 07:55:00,
2013-09-07 03:00:00,65.7,64.5,29.96,North,8,0.0,0.0,96,0.00,,,0.00,Wunderground v.1.15,2013-09-07 08:00:00,
2013-09-07 03:10:00,65.7,64.5,29.96,North,8,0.0,0.0,96,0.00,,,0.00,Wunderground v.1.15,2013-09-07 08:10:00,
2013-09-07 03:20:00,65.5,64.3,29.96,North,8,0.0,0.0,96,0.00,,,0.00,Wunderground v.1.15,2013-09-07 08:20:00,
2013-09-07 03:25:00,65.4,63.9,29.96,North,8,0.0,0.0,95,0.00,,,0.00,Wunderground v.1.15,2013-09-07 08:25:00,
2013-09-07 03:30:00,65.3,63.8,29.96,North,8,0.0,0.0,95,0.00,,,0.00,Wunderground v.1.15,2013-09-07 08:30:00,
2013-09-07 03:40:00,65.1,63.9,29.96,North,8,0.0,0.0,96,0.00,,,0.00,Wunderground v.1.15,2013-09-07 08:40:00,
2013-09-07 03:50:00,64.9,63.7,29.96,North,8,0.0,0.0,96,0.00,,,0.00,Wunderground v.1.15,2013-09-07 08:50:00,
2013-09-07 04:00:00,64.9,63.7,29.96,North,8,0.0,0.0,96,0.00,,,0.00,Wunderground v.1.15,2013-09-07 09:00:00,
2013-09-07 04:10:00,64.8,63.6,29.95,North,8,0.0,0.0,96,0.00,,,0.00,Wunderground v.1.15,2013-09-07 09:10:00,
2013-09-07 04:20:00,64.8,63.6,29.96,North,8,0.0,0.0,96,0.00,,,0.00,Wunderground v.1.15,2013-09-07 09:20:00,
2013-09-07 04:25:00,64.8,63.6,29.96,North,8,0.0,0.0,96,0.00,,,0.00,Wunderground v.1.15,2013-09-07 09:25:00,
2013-09-07 04:30:00,64.8,63.6,29.95,North,8,0.0,0.0,96,0.00,,,0.00,Wunderground v.1.15,2013-09-07 09:30:00,
2013-09-07 04:40:00,64.8,63.6,29.95,North,8,0.0,0.0,96,0.00,,,0.00,Wunderground v.1.15,2013-09-07 09:40:00,
2013-09-07 04:50:00,64.9,63.7,29.95,North,8,0.0,0.0,96,0.00,,,0.00,Wunderground v.1.15,2013-09-07 09:50:00,
2013-09-07 04:55:00,64.9,63.7,29.95,North,8,0.0,0.0,96,0.00,,,0.00,Wunderground v.1.15,2013-09-07 09:55:00,
2013-09-07 05:05:00,64.9,63.7,29.95,North,8,0.0,0.0,96,0.00,,,0.00,Wunderground v.1.15,2013-09-07 10:05:00,
2013-09-07 05:10:00,64.9,63.7,29.95,North,8,0.0,0.0,96,0.00,,,0.00,Wunderground v.1.15,2013-09-07 10:10:00,
2013-09-07 05:20:00,64.9,63.7,29.95,North,8,0.0,0.0,96,0.00,,,0.00,Wunderground v.1.15,2013-09-07 10:20:00,
2013-09-07 05:30:00,64.8,63.6,29.95,North,8,0.0,0.0,96,0.00,,,0.00,Wunderground v.1.15,2013-09-07 10:30:00,
2013-09-07 05:40:00,64.8,63.6,29.95,North,8,0.0,0.0,96,0.00,,,0.00,Wunderground v.1.15,2013-09-07 10:40:00,
2013-09-07 05:50:00,64.8,63.6,29.94,North,8,0.0,0.0,96,0.00,,,0.00,Wunderground v.1.15,2013-09-07 10:50:00,
2013-09-07 05:55:00,64.8,63.6,29.94,North,8,0.0,0.0,96,0.00,,,0.00,Wunderground v.1.15,2013-09-07 10:55:00,
2013-09-07 06:00:00,64.7,63.5,29.94,North,8,0.0,0.0,96,0.00,,,0.00,Wunderground v.1.15,2013-09-07 11:00:00,
2013-09-07 06:10:00,64.6,63.4,29.94,North,8,0.0,0.0,96,0.00,,,0.00,Wunderground v.1.15,2013-09-07 11:10:00,
2013-09-07 06:20:00,64.5,63.3,29.94,North,8,0.0,0.0,96,0.00,,,0.00,Wunderground v.1.15,2013-09-07 11:20:00,
2013-09-07 06:25:00,64.5,63.3,29.94,North,8,0.0,0.0,96,0.00,,,0.00,Wunderground v.1.15,2013-09-07 11:25:00,
2013-09-07 06:35:00,64.5,63.3,29.94,North,8,0.0,0.0,96,0.00,,,0.00,Wunderground v.1.15,2013-09-07 11:35:00,
2013-09-07 06:40:00,64.5,63.3,29.95,North,8,0.0,0.0,96,0.00,,,0.00,Wunderground v.1.15,2013-09-07 11:40:00,
2013-09-07 06:50:00,64.5,63.3,29.95,North,8,0.0,0.0,96,0.00,,,0.00,Wunderground v.1.15,2013-09-07 11:50:00,
2013-09-07 07:00:00,64.6,63.4,29.94,North,8,0.0,0.0,96,0.00,,,0.00,Wunderground v.1.15,2013-09-07 12:00:00,
2013-09-07 07:10:00,64.8,63.6,29.94,North,8,0.0,0.0,96,0.00,,,0.00,Wunderground v.1.15,2013-09-07 12:10:00,
2013-09-07 07:20:00,65.0,63.8,29.94,North,8,0.0,0.0,96,0.00,,,0.00,Wunderground v.1.15,2013-09-07 12:20:00,
2013-09-07 07:25:00,65.1,63.9,29.94,North,8,0.0,0.0,96,0.00,,,0.00,Wunderground v.1.15,2013-09-07 12:25:00,
2013-09-07 07:30:00,65.1,63.9,29.93,North,9,0.0,0.0,96,0.00,,,0.00,Wunderground v.1.15,2013-09-07 12:30:00,
2013-09-07 07:40:00,65.1,63.9,29.93,North,9,0.0,0.0,96,0.00,,,0.00,Wunderground v.1.15,2013-09-07 12:40:00,
2013-09-07 07:50:00,65.2,64.0,29.93,North,9,0.0,0.0,96,0.00,,,0.00,Wunderground v.1.15,2013-09-07 12:50:00,
2013-09-07 07:55:00,65.2,64.0,29.93,North,9,0.0,0.0,96,0.00,,,0.00,Wunderground v.1.15,2013-09-07 12:55:00,
2013-09-07 08:00:00,65.3,64.4,29.93,North,9,0.0,0.0,97,0.00,,,0.00,Wunderground v.1.15,2013-09-07 13:00:00,
2013-09-07 08:10:00,65.7,64.8,29.93,North,9,0.0,0.0,97,0.00,,,0.00,Wunderground v.1.15,2013-09-07 13:10:00,
2013-09-07 08:20:00,66.3,65.4,29.93,North,9,0.0,0.0,97,0.00,,,0.00,Wunderground v.1.15,2013-09-07 13:20:00,
2013-09-07 08:30:00,66.8,65.9,29.92,North,9,0.0,0.0,97,0.00,,,0.00,Wunderground v.1.15,2013-09-07 13:30:00,
2013-09-07 08:40:00,67.6,66.7,29.92,North,9,0.0,0.0,97,0.00,,,0.00,Wunderground v.1.15,2013-09-07 13:40:00,
2013-09-07 08:50:00,67.9,66.7,29.92,NNW,337,0.0,0.0,96,0.00,,,0.00,Wunderground v.1.15,2013-09-07 13:50:00,
2013-09-07 08:55:00,68.2,66.7,29.92,NNW,335,0.0,0.0,95,0.00,,,0.00,Wunderground v.1.15,2013-09-07 13:55:00,
2013-09-07 09:00:00,68.5,67.0,29.92,NNW,335,0.0,0.0,95,0.00,,,0.00,Wunderground v.1.15,2013-09-07 14:00:00,
2013-09-07 09:10:00,69.5,67.7,29.93,NNW,335,0.0,0.0,94,0.00,,,0.00,Wunderground v.1.15,2013-09-07 14:10:00,
2013-09-07 09:20:00,70.4,68.0,29.93,NNW,335,0.0,0.0,92,0.00,,,0.00,Wunderground v.1.15,2013-09-07 14:20:00,
2013-09-07 09:25:00,71.0,68.2,29.92,West,271,0.0,0.0,91,0.00,,,0.00,Wunderground v.1.15,2013-09-07 14:25:00,
2013-09-07 09:35:00,72.0,68.6,29.92,West,271,0.0,0.0,89,0.00,,,0.00,Wunderground v.1.15,2013-09-07 14:35:00,
2013-09-07 09:40:00,72.4,68.3,29.92,West,261,0.0,0.0,87,0.00,,,0.00,Wunderground v.1.15,2013-09-07 14:40:00,
2013-09-07 09:50:00,73.5,68.7,29.92,West,261,0.0,1.0,85,0.00,,,0.00,Wunderground v.1.15,2013-09-07 14:50:00,
2013-09-07 10:00:00,74.7,68.8,29.92,North,7,0.0,0.0,82,0.00,,,0.00,Wunderground v.1.15,2013-09-07 15:00:00,
2013-09-07 10:10:00,75.6,69.7,29.91,North,7,0.0,0.0,82,0.00,,,0.00,Wunderground v.1.15,2013-09-07 15:10:00,
2013-09-07 10:20:00,76.4,69.8,29.91,North,7,0.0,0.0,80,0.00,,,0.00,Wunderground v.1.15,2013-09-07 15:20:00,
2013-09-07 10:25:00,76.7,69.3,29.91,North,2,0.0,0.0,78,0.00,,,0.00,Wunderground v.1.15,2013-09-07 15:25:00,
2013-09-07 10:30:00,77.2,69.8,29.91,North,2,0.0,0.0,78,0.00,,,0.00,Wunderground v.1.15,2013-09-07 15:30:00,
2013-09-07 10:40:00,77.5,68.9,29.91,North,360,0.0,0.0,75,0.00,,,0.00,Wunderground v.1.15,2013-09-07 15:40:00,
2013-09-07 10:50:00,78.4,70.2,29.91,ENE,59,0.0,1.0,76,0.00,,,0.00,Wunderground v.1.15,2013-09-07 15:50:00,
2013-09-07 10:55:00,78.5,70.3,29.91,NE,54,0.0,1.0,76,0.00,,,0.00,Wunderground v.1.15,2013-09-07 15:55:00,
2013-09-07 11:00:00,78.8,70.2,29.91,NE,42,0.0,0.0,75,0.00,,,0.00,Wunderground v.1.15,2013-09-07 16:00:00,
2013-09-07 11:10:00,78.9,69.9,29.90,North,7,0.0,0.0,74,0.00,,,0.00,Wunderground v.1.15,2013-09-07 16:10:00,
2013-09-07 11:20:00,78.3,69.7,29.90,North,7,0.0,0.0,75,0.00,,,0.00,Wunderground v.1.15,2013-09-07 16:20:00,
2013-09-07 11:30:00,77.8,70.4,29.90,North,7,0.0,0.0,78,0.00,,,0.00,Wunderground v.1.15,2013-09-07 16:30:00,
2013-09-07 11:40:00,77.0,70.0,29.89,North,7,0.0,0.0,79,0.00,,,0.00,Wunderground v.1.15,2013-09-07 16:40:00,
2013-09-07 11:50:00,76.5,69.9,29.89,North,7,0.0,0.0,80,0.00,,,0.00,Wunderground v.1.15,2013-09-07 16:50:00,
2013-09-07 11:55:00,76.2,69.9,29.89,North,7,0.0,0.0,81,0.00,,,0.00,Wunderground v.1.15,2013-09-07 16:55:00,
2013-09-07 12:00:00,76.0,69.7,29.88,North,7,0.0,0.0,81,0.00,,,0.00,Wunderground v.1.15,2013-09-07 17:00:00,
2013-09-07 12:10:00,75.5,69.3,29.88,North,7,0.0,0.0,81,0.00,,,0.00,Wunderground v.1.15,2013-09-07 17:10:00,
2013-09-07 12:20:00,75.2,69.3,29.87,North,7,0.0,0.0,82,0.00,,,0.00,Wunderground v.1.15,2013-09-07 17:20:00,
2013-09-07 12:25:00,75.0,69.1,29.87,North,7,0.0,0.0,82,0.00,,,0.00,Wunderground v.1.15,2013-09-07 17:25:00,
2013-09-07 12:30:00,74.8,69.3,29.87,North,7,0.0,0.0,83,0.00,,,0.00,Wunderground v.1.15,2013-09-07 17:30:00,
2013-09-07 12:40:00,74.1,69.3,29.89,North,7,0.0,0.0,85,0.00,,,0.01,Wunderground v.1.15,2013-09-07 17:40:00,
2013-09-07 12:50:00,72.3,69.2,29.91,North,360,0.0,2.0,90,0.11,,,0.14,Wunderground v.1.15,2013-09-07 17:50:00,
2013-09-07 12:55:00,71.3,68.5,29.91,ENE,72,1.0,2.0,91,0.06,,,0.14,Wunderground v.1.15,2013-09-07 17:55:00,
2013-09-07 13:00:00,70.8,68.4,29.91,NNE,24,1.0,1.0,92,0.05,,,0.15,Wunderground v.1.15,2013-09-07 18:00:00,
2013-09-07 13:10:00,70.5,68.7,29.90,NNE,16,0.0,0.0,94,1.04,,,0.31,Wunderground v.1.15,2013-09-07 18:10:00,
2013-09-07 13:20:00,70.2,68.4,29.89,WNW,293,0.0,0.0,94,0.55,,,0.44,Wunderground v.1.15,2013-09-07 18:20:00,
2013-09-07 13:25:00,70.0,68.5,29.88,WNW,292,0.0,0.0,95,0.19,,,0.45,Wunderground v.1.15,2013-09-07 18:25:00,
2013-09-07 13:30:00,70.0,68.5,29.88,WNW,292,0.0,0.0,95,0.07,,,0.45,Wunderground v.1.15,2013-09-07 18:30:00,
2013-09-07 13:40:00,70.1,68.6,29.88,WNW,292,0.0,0.0,95,0.00,,,0.45,Wunderground v.1.15,2013-09-07 18:40:00,
2013-09-07 13:50:00,70.4,69.2,29.88,WNW,294,0.0,0.0,96,0.00,,,0.45,Wunderground v.1.15,2013-09-07 18:50:00,
2013-09-07 14:00:00,70.7,69.5,29.88,WNW,298,0.0,0.0,96,0.00,,,0.45,Wunderground v.1.15,2013-09-07 19:00:00,
2013-09-07 14:10:00,70.8,69.6,29.90,ESE,113,0.0,0.0,96,0.00,,,0.45,Wunderground v.1.15,2013-09-07 19:10:00,
2013-09-07 14:20:00,70.9,69.7,29.89,SSW,211,0.0,0.0,96,0.00,,,0.45,Wunderground v.1.15,2013-09-07 19:20:00,
2013-09-07 14:25:00,70.9,70.0,29.89,SSW,201,0.0,0.0,97,0.00,,,0.45,Wunderground v.1.15,2013-09-07 19:25:00,
2013-09-07 14:30:00,71.1,70.2,29.89,SSE,159,0.0,0.0,97,0.00,,,0.45,Wunderground v.1.15,2013-09-07 19:30:00,
2013-09-07 14:40:00,71.2,70.3,29.88,WSW,252,0.0,1.0,97,0.00,,,0.45,Wunderground v.1.15,2013-09-07 19:40:00,
2013-09-07 14:50:00,71.9,71.0,29.88,SSE,160,0.0,0.0,97,0.00,,,0.45,Wunderground v.1.15,2013-09-07 19:50:00,
2013-09-07 14:55:00,72.2,71.3,29.88,NNW,337,0.0,0.0,97,0.00,,,0.45,Wunderground v.1.15,2013-09-07 19:55:00,
2013-09-07 15:00:00,72.2,71.0,29.89,NNW,337,0.0,0.0,96,0.00,,,0.45,Wunderground v.1.15,2013-09-07 20:00:00,
2013-09-07 15:10:00,72.4,70.9,29.88,NNE,15,0.0,0.0,95,0.00,,,0.45,Wunderground v.1.15,2013-09-07 20:10:00,
2013-09-07 15:20:00,73.3,71.8,29.88,North,11,0.0,0.0,95,0.00,,,0.45,Wunderground v.1.15,2013-09-07 20:20:00,
2013-09-07 15:25:00,73.4,71.6,29.88,ESE,121,0.0,0.0,94,0.00,,,0.45,Wunderground v.1.15,2013-09-07 20:25:00,
2013-09-07 15:35:00,73.2,71.1,29.88,ESE,114,0.0,0.0,93,0.00,,,0.45,Wunderground v.1.15,2013-09-07 20:35:00,
2013-09-07 15:40:00,73.2,71.1,29.88,ESE,114,0.0,0.0,93,0.00,,,0.45,Wunderground v.1.15,2013-09-07 20:40:00,
2013-09-07 15:50:00,73.0,70.9,29.88,ENE,61,0.0,0.0,93,0.00,,,0.45,Wunderground v.1.15,2013-09-07 20:50:00,
2013-09-07 15:55:00,73.1,71.0,29.88,ENE,61,0.0,0.0,93,0.00,,,0.45,Wunderground v.1.15,2013-09-07 20:55:00,
2013-09-07 16:00:00,73.2,70.7,29.88,ENE,61,0.0,0.0,92,0.00,,,0.45,Wunderground v.1.15,2013-09-07 21:00:00,
2013-09-07 16:10:00,73.8,71.3,29.88,NNE,28,0.0,0.0,92,0.00,,,0.45,Wunderground v.1.15,2013-09-07 21:10:00,
2013-09-07 16:20:00,74.4,71.6,29.88,North,6,0.0,0.0,91,0.00,,,0.45,Wunderground v.1.15,2013-09-07 21:20:00,
2013-09-07 16:25:00,74.5,71.0,29.88,North,11,0.0,0.0,89,0.00,,,0.45,Wunderground v.1.15,2013-09-07 21:25:00,
2013-09-07 16:35:00,74.9,71.4,29.88,WNW,298,0.0,0.0,89,0.00,,,0.45,Wunderground v.1.15,2013-09-07 21:35:00,
2013-09-07 16:40:00,74.9,71.4,29.87,North,10,0.0,0.0,89,0.00,,,0.45,Wunderground v.1.15,2013-09-07 21:40:00,
2013-09-07 16:50:00,75.0,71.2,29.88,North,350,0.0,0.0,88,0.00,,,0.45,Wunderground v.1.15,2013-09-07 21:50:00,
2013-09-07 17:00:00,75.0,70.9,29.87,North,350,0.0,0.0,87,0.00,,,0.45,Wunderground v.1.15,2013-09-07 22:00:00,
2013-09-07 17:10:00,75.0,70.9,29.87,North,350,0.0,0.0,87,0.00,,,0.45,Wunderground v.1.15,2013-09-07 22:10:00,
2013-09-07 17:20:00,74.9,71.1,29.87,North,350,0.0,0.0,88,0.00,,,0.45,Wunderground v.1.15,2013-09-07 22:20:00,
2013-09-07 17:25:00,74.8,71.3,29.87,NW,322,0.0,0.0,89,0.00,,,0.45,Wunderground v.1.15,2013-09-07 22:25:00,
2013-09-07 17:30:00,74.7,70.9,29.87,NW,322,0.0,0.0,88,0.00,,,0.45,Wunderground v.1.15,2013-09-07 22:30:00,
2013-09-07 17:40:00,74.7,70.9,29.87,NNW,344,0.0,0.0,88,0.00,,,0.45,Wunderground v.1.15,2013-09-07 22:40:00,
2013-09-07 17:50:00,74.8,71.0,29.87,NNW,340,0.0,0.0,88,0.00,,,0.45,Wunderground v.1.15,2013-09-07 22:50:00,
2013-09-07 17:55:00,74.8,71.3,29.87,NNW,340,0.0,0.0,89,0.00,,,0.45,Wunderground v.1.15,2013-09-07 22:55:00,
2013-09-07 18:00:00,74.5,71.0,29.87,NNW,340,0.0,0.0,89,0.00,,,0.45,Wunderground v.1.15,2013-09-07 23:00:00,
2013-09-07 18:10:00,74.3,71.2,29.87,NNW,340,0.0,0.0,90,0.00,,,0.45,Wunderground v.1.15,2013-09-07 23:10:00,
2013-09-07 18:20:00,74.1,71.0,29.88,NNW,340,0.0,0.0,90,0.00,,,0.45,Wunderground v.1.15,2013-09-07 23:20:00,
2013-09-07 18:30:00,73.9,70.8,29.88,NNW,340,0.0,0.0,90,0.00,,,0.45,Wunderground v.1.15,2013-09-07 23:30:00,
2013-09-07 18:40:00,73.6,70.8,29.88,NNW,340,0.0,0.0,91,0.00,,,0.45,Wunderground v.1.15,2013-09-07 23:40:00,
2013-09-07 18:50:00,73.3,70.5,29.88,NNW,340,0.0,0.0,91,0.00,,,0.45,Wunderground v.1.15,2013-09-07 23:50:00,
2013-09-07 18:55:00,73.1,70.6,29.88,NNW,340,0.0,0.0,92,0.00,,,0.45,Wunderground v.1.15,2013-09-07 23:55:00,
2013-09-07 19:00:00,72.8,70.7,29.88,NNW,340,0.0,0.0,93,0.00,,,0.45,Wunderground v.1.15,2013-09-08 00:00:00,
2013-09-07 19:10:00,72.4,70.3,29.88,NNW,340,0.0,0.0,93,0.00,,,0.45,Wunderground v.1.15,2013-09-08 00:10:00,
2013-09-07 19:20:00,72.1,70.3,29.88,NNW,340,0.0,0.0,94,0.00,,,0.45,Wunderground v.1.15,2013-09-08 00:20:00,
2013-09-07 19:25:00,71.9,70.1,29.89,NNW,340,0.0,0.0,94,0.00,,,0.45,Wunderground v.1.15,2013-09-08 00:25:00,
2013-09-07 19:30:00,71.7,69.9,29.89,NNW,340,0.0,0.0,94,0.00,,,0.45,Wunderground v.1.15,2013-09-08 00:30:00,
2013-09-07 19:40:00,71.5,70.0,29.89,NNW,340,0.0,0.0,95,0.00,,,0.45,Wunderground v.1.15,2013-09-08 00:40:00,
2013-09-07 19:50:00,71.3,69.8,29.88,NNW,340,0.0,0.0,95,0.00,,,0.45,Wunderground v.1.15,2013-09-08 00:50:00,
2013-09-07 19:55:00,71.2,69.7,29.88,NNW,340,0.0,0.0,95,0.00,,,0.45,Wunderground v.1.15,2013-09-08 00:55:00,
2013-09-07 20:05:00,71.1,69.6,29.88,NNW,340,0.0,0.0,95,0.00,,,0.45,Wunderground v.1.15,2013-09-08 01:05:00,
2013-09-07 20:10:00,70.9,69.4,29.88,NNW,340,0.0,0.0,95,0.00,,,0.45,Wunderground v.1.15,2013-09-08 01:10:00,
2013-09-07 20:20:00,70.6,69.1,29.89,NNW,340,0.0,0.0,95,0.00,,,0.45,Wunderground v.1.15,2013-09-08 01:20:00,
2013-09-07 20:25:00,70.3,68.8,29.90,NNW,340,0.0,0.0,95,0.00,,,0.45,Wunderground v.1.15,2013-09-08 01:25:00,
2013-09-07 20:30:00,70.2,69.0,29.90,NNW,340,0.0,0.0,96,0.00,,,0.45,Wunderground v.1.15,2013-09-08 01:30:00,
2013-09-07 20:40:00,70.1,68.9,29.91,NNW,340,0.0,0.0,96,0.00,,,0.45,Wunderground v.1.15,2013-09-08 01:40:00,
2013-09-07 20:50:00,69.8,68.6,29.91,NNW,340,0.0,0.0,96,0.00,,,0.45,Wunderground v.1.15,2013-09-08 01:50:00,
2013-09-07 20:55:00,69.9,68.7,29.90,NNW,340,0.0,0.0,96,0.00,,,0.45,Wunderground v.1.15,2013-09-08 01:55:00,
2013-09-07 21:00:00,69.8,68.6,29.91,NNW,340,0.0,0.0,96,0.00,,,0.45,Wunderground v.1.15,2013-09-08 02:00:00,
2013-09-07 21:10:00,69.7,68.5,29.91,NNW,340,0.0,0.0,96,0.00,,,0.45,Wunderground v.1.15,2013-09-08 02:10:00,
2013-09-07 21:20:00,69.7,68.8,29.91,NNW,340,0.0,0.0,97,0.00,,,0.45,Wunderground v.1.15,2013-09-08 02:20:00,
2013-09-07 21:25:00,69.7,68.8,29.91,NNW,340,0.0,0.0,97,0.00,,,0.45,Wunderground v.1.15,2013-09-08 02:25:00,
2013-09-07 21:35:00,69.4,68.2,29.92,NNW,340,0.0,0.0,96,0.00,,,0.45,Wunderground v.1.15,2013-09-08 02:35:00,
2013-09-07 21:40:00,69.4,68.2,29.92,NNW,340,0.0,0.0,96,0.00,,,0.45,Wunderground v.1.15,2013-09-08 02:40:00,
2013-09-07 21:50:00,69.4,68.5,29.92,NNW,340,0.0,0.0,97,0.00,,,0.45,Wunderground v.1.15,2013-09-08 02:50:00,
2013-09-07 21:55:00,69.4,68.5,29.92,NNW,340,0.0,0.0,97,0.00,,,0.45,Wunderground v.1.15,2013-09-08 02:55:00,
2013-09-07 22:00:00,69.4,68.5,29.93,NNW,340,0.0,0.0,97,0.00,,,0.45,Wunderground v.1.15,2013-09-08 03:00:00,
2013-09-07 22:10:00,69.4,68.5,29.93,NNW,340,0.0,0.0,97,0.00,,,0.45,Wunderground v.1.15,2013-09-08 03:10:00,
2013-09-07 22:20:00,69.7,68.8,29.93,NNW,340,0.0,0.0,97,0.00,,,0.45,Wunderground v.1.15,2013-09-08 03:20:00,
2013-09-07 22:25:00,69.8,68.9,29.93,NNW,340,0.0,0.0,97,0.00,,,0.45,Wunderground v.1.15,2013-09-08 03:25:00,
2013-09-07 22:30:00,69.9,69.0,29.93,NNW,340,0.0,0.0,97,0.00,,,0.45,Wunderground v.1.15,2013-09-08 03:30:00,
2013-09-07 22:40:00,70.1,69.2,29.94,NNW,340,0.0,0.0,97,0.00,,,0.45,Wunderground v.1.15,2013-09-08 03:40:00,
2013-09-07 22:50:00,70.2,69.0,29.94,NNW,340,0.0,0.0,96,0.00,,,0.45,Wunderground v.1.15,2013-09-08 03:50:00,
2013-09-07 23:00:00,70.3,69.1,29.94,NNW,340,0.0,0.0,96,0.00,,,0.45,Wunderground v.1.15,2013-09-08 04:00:00,
2013-09-07 23:05:00,70.4,69.5,29.95,SSW,201,0.0,0.0,97,0.00,,,0.45,Wunderground v.1.15,2013-09-08 04:05:00,
2013-09-07 23:10:00,70.6,69.4,29.95,NNW,330,0.0,0.0,96,0.00,,,0.45,Wunderground v.1.15,2013-09-08 04:10:00,
2013-09-07 23:15:00,70.7,69.5,29.95,NNW,342,1.0,2.0,96,0.00,,,0.45,Wunderground v.1.15,2013-09-08 04:15:00,
2013-09-07 23:20:00,70.7,69.5,29.96,NNW,339,1.0,1.0,96,0.00,,,0.45,Wunderground v.1.15,2013-09-08 04:20:00,
2013-09-07 23:25:00,70.5,69.0,29.96,South,190,1.0,1.0,95,0.00,,,0.45,Wunderground v.1.15,2013-09-08 04:25:00,
2013-09-07 23:30:00,70.4,68.9,29.96,SSW,212,1.0,1.0,95,0.00,,,0.45,Wunderground v.1.15,2013-09-08 04:30:00,
2013-09-07 23:35:00,70.3,68.8,29.96,NNE,12,1.0,1.0,95,0.00,,,0.45,Wunderground v.1.15,2013-09-08 04:35:00,
2013-09-07 23:40:00,70.1,68.6,29.97,ENE,67,1.0,1.0,95,0.00,,,0.45,Wunderground v.1.15,2013-09-08 04:40:00,
2013-09-07 23:45:00,69.8,68.3,29.97,WNW,303,1.0,1.0,95,0.00,,,0.45,Wunderground v.1.15,2013-09-08 04:45:00,
2013-09-07 23:50:00,69.7,68.2,29.97,NNW,337,1.0,1.0,95,0.00,,,0.45,Wunderground v.1.15,2013-09-08 04:50:00,
2013-09-07 23:55:00,69.5,68.0,29.97,South,182,1.0,1.0,95,0.00,,,0.45,Wunderground v.1.15,2013-09-08 04:55:00,